Thunderstorms From: 23-05-2018 15:04 Until: 24-05-2018 15:00 warning for: Thunderstorms Level: Yellow info button

Although rather usual in this region, locally or potentially dangerous phenomena are expected. (such as local winds, summer thunderstorms, rising streams or high waves) Be aware and pay attention to the latest weather updates, especially if you carry out activities exposed to weather or close to a stream or shoreline. 


Meteo18 Weather Cam more information Meteo18 Weather Cam


warning for Thunderstorms more information blitzortung!


Rain radar more information rain snow radar


Visit our other weather sites:

Template documentation
and downloads

And another site



Weather Underground History page Text

Daily Summary for October 18, 2017 Units:  English    Metric   Both
« Previous Day
Next Day »
Daily Weekly Monthly Yearly Custom
  High: Low: Average:
Temperature: TemperatureC °F 8.7 °F 14.7 °F
Dew Point: DewpointC °F 6.9 °F 10.2 °F
Humidity: Humidity % 50 % 75 %
Wind Speed: WindSpeedKMH mph 0.0 mph 1.4 mph
Wind Gust: WindSpeedGustKMH mph - -
Wind:- - ESE
Pressure: PressurehPa in 1011.4 in -
Precipitation: 0.0 in    
Historical Graphs
 
 
Tabular Data for October 18, 2017
Time Temperature Dew Point Pressure Wind Wind Speed Wind Gust Humidity Rainfall Rate (Hourly)
TemperatureC °F DewpointC °F PressurehPa in Calm     Humidity % HourlyPrecipMM in
00:02 12.3 °F 8.6 °F 1017.2 in Calm   4.8 mph 78 % 0.0 in
00:12 11.7 °F 8.2 °F 1017.2 in Calm   4.8 mph 79 % 0.0 in
00:17 11.2 °F 8.1 °F 1017.2 in Calm   1.6 mph 81 % 0.0 in
00:22 10.9 °F 8.1 °F 1017.2 in Calm   1.6 mph 83 % 0.0 in
00:32 11.0 °F 8.4 °F 1017.2 in Calm   1.6 mph 84 % 0.0 in
00:42 10.9 °F 8.3 °F 1017.2 in Calm     84 % 0.0 in
00:52 10.8 °F 8.4 °F 1017.2 in Calm   1.6 mph 85 % 0.0 in
00:57 10.7 °F 8.3 °F 1017.2 in Calm   1.6 mph 85 % 0.0 in
01:02 10.5 °F 8.3 °F 1017.2 in Calm   1.6 mph 86 % 0.0 in
01:07 10.6 °F 8.4 °F 1017.2 in Calm   1.6 mph 86 % 0.0 in
01:12 10.6 °F 8.4 °F 1017.2 in Calm   1.6 mph 86 % 0.0 in
01:17 10.6 °F 8.4 °F 1017.2 in NNE 1.6 mph 1.6 mph 86 % 0.0 in
01:22 10.7 °F 8.5 °F 1017.2 in Calm   1.6 mph 86 % 0.0 in
01:32 10.7 °F 8.5 °F 1016.8 in Calm   1.6 mph 86 % 0.0 in
01:37 10.7 °F 8.5 °F 1017.2 in Calm   1.6 mph 86 % 0.0 in
01:42 10.4 °F 8.0 °F 1017.2 in NNE 1.6 mph 1.6 mph 85 % 0.0 in
01:47 10.1 °F 7.9 °F 1017.2 in Calm   3.2 mph 86 % 0.0 in
01:52 9.9 °F 7.8 °F 1017.2 in Calm   3.2 mph 87 % 0.0 in
02:02 10.1 °F 8.0 °F 1017.2 in Calm   4.8 mph 87 % 0.0 in
02:12 9.9 °F 7.8 °F 1017.2 in WNW 1.6 mph 4.8 mph 87 % 0.0 in
02:17 9.7 °F 7.8 °F 1017.2 in Calm   1.6 mph 88 % 0.0 in
02:22 9.9 °F 8.2 °F 1017.2 in Calm   1.6 mph 89 % 0.0 in
02:27 10.1 °F 8.2 °F 1017.2 in North 1.6 mph 1.6 mph 88 % 0.0 in
02:32 10.2 °F 8.1 °F 1016.8 in Calm   3.2 mph 87 % 0.0 in
02:42 10.1 °F 8.0 °F 1017.2 in Calm   3.2 mph 87 % 0.0 in
02:47 9.9 °F 8.0 °F 1016.8 in Calm   1.6 mph 88 % 0.0 in
02:52 9.8 °F 8.1 °F 1016.8 in WNW 1.6 mph 1.6 mph 89 % 0.0 in
02:57 9.8 °F 8.2 °F 1017.2 in WNW 3.2 mph 3.2 mph 90 % 0.0 in
03:02 9.8 °F 8.2 °F 1017.2 in Calm   3.2 mph 90 % 0.0 in
03:12 10.2 °F 8.5 °F 1016.8 in Calm   3.2 mph 89 % 0.0 in
03:17 10.2 °F 8.3 °F 1017.2 in Calm   3.2 mph 88 % 0.0 in
03:22 10.0 °F 8.1 °F 1016.8 in Calm     88 % 0.0 in
03:27 9.8 °F 8.1 °F 1017.2 in Calm   1.6 mph 89 % 0.0 in
03:32 9.9 °F 8.3 °F 1017.2 in Calm   1.6 mph 90 % 0.0 in
03:37 10.0 °F 8.3 °F 1017.2 in Calm   1.6 mph 89 % 0.0 in
03:42 10.1 °F 8.4 °F 1016.8 in Calm   1.6 mph 89 % 0.0 in
03:47 10.1 °F 8.2 °F 1017.2 in Calm   1.6 mph 88 % 0.0 in
03:52 9.9 °F 8.0 °F 1016.8 in Calm   1.6 mph 88 % 0.0 in
03:57 9.9 °F 8.0 °F 1016.8 in Calm   1.6 mph 88 % 0.0 in
04:02 10.1 °F 8.0 °F 1016.8 in Calm   1.6 mph 87 % 0.0 in
04:12 10.2 °F 8.1 °F 1016.8 in Calm   1.6 mph 87 % 0.0 in
04:17 10.3 °F 8.1 °F 1016.5 in Calm     86 % 0.0 in
04:22 10.3 °F 7.9 °F 1016.8 in North 1.6 mph   85 % 0.0 in
04:27 10.2 °F 8.0 °F 1016.5 in Calm     86 % 0.0 in
04:32 10.3 °F 8.1 °F 1016.5 in Calm   1.6 mph 86 % 0.0 in
04:37 10.2 °F 8.0 °F 1016.5 in Calm   1.6 mph 86 % 0.0 in
04:42 10.1 °F 7.9 °F 1016.5 in Calm   1.6 mph 86 % 0.0 in
04:47 9.9 °F 7.8 °F 1016.5 in Calm   1.6 mph 87 % 0.0 in
04:52 9.9 °F 7.8 °F 1016.5 in North 1.6 mph 1.6 mph 87 % 0.0 in
05:02 10.0 °F 7.9 °F 1016.5 in Calm   1.6 mph 87 % 0.0 in
05:27 9.9 °F 7.7 °F 1016.1 in Calm   1.6 mph 86 % 0.0 in
05:32 10.2 °F 7.4 °F 1016.1 in Calm   1.6 mph 83 % 0.0 in
05:37 9.8 °F 7.2 °F 1016.1 in Calm   1.6 mph 84 % 0.0 in
05:42 9.6 °F 7.4 °F 1016.1 in Calm   1.6 mph 86 % 0.0 in
05:47 9.6 °F 7.4 °F 1016.1 in Calm   1.6 mph 86 % 0.0 in
05:57 9.6 °F 7.4 °F 1016.1 in Calm   1.6 mph 86 % 0.0 in
06:02 9.4 °F 7.2 °F 1016.1 in Calm   1.6 mph 86 % 0.0 in
06:07 9.7 °F 7.5 °F 1016.1 in Calm   3.2 mph 86 % 0.0 in
06:12 9.4 °F 7.2 °F 1016.1 in Calm   3.2 mph 86 % 0.0 in
06:17 9.1 °F 7.1 °F 1016.1 in NW 1.6 mph 3.2 mph 87 % 0.0 in
06:22 9.2 °F 7.3 °F 1016.1 in Calm   3.2 mph 88 % 0.0 in
06:32 8.8 °F 7.1 °F 1016.1 in Calm   3.2 mph 89 % 0.0 in
06:42 9.0 °F 7.1 °F 1016.1 in WNW 1.6 mph 3.2 mph 88 % 0.0 in
06:47 8.8 °F 7.1 °F 1016.1 in Calm   1.6 mph 89 % 0.0 in
06:52 9.1 °F 7.2 °F 1015.8 in North 1.6 mph 1.6 mph 88 % 0.0 in
06:57 9.0 °F 7.1 °F 1016.1 in Calm   1.6 mph 88 % 0.0 in
07:02 8.9 °F 6.9 °F 1016.1 in Calm   1.6 mph 87 % 0.0 in
07:07 8.8 °F 6.9 °F 1015.8 in Calm   1.6 mph 88 % 0.0 in
07:12 8.8 °F 7.1 °F 1015.8 in Calm   1.6 mph 89 % 0.0 in
07:17 8.9 °F 7.0 °F 1015.8 in Calm   1.6 mph 88 % 0.0 in
07:22 8.8 °F 7.1 °F 1015.8 in NW 1.6 mph 1.6 mph 89 % 0.0 in
07:32 9.1 °F 6.9 °F 1015.8 in Calm   1.6 mph 86 % 0.0 in
07:42 8.8 °F 7.1 °F 1015.8 in Calm   1.6 mph 89 % 0.0 in
07:47 8.7 °F 7.2 °F 1015.8 in North 1.6 mph 1.6 mph 90 % 0.0 in
07:52 8.9 °F 7.2 °F 1015.8 in Calm   1.6 mph 89 % 0.0 in
07:57 8.9 °F 7.2 °F 1015.8 in Calm   1.6 mph 89 % 0.0 in
08:02 8.9 °F 7.2 °F 1015.8 in Calm   1.6 mph 89 % 0.0 in
08:07 8.9 °F 7.2 °F 1015.8 in Calm   1.6 mph 89 % 0.0 in
08:12 8.8 °F 6.9 °F 1015.8 in Calm   1.6 mph 88 % 0.0 in
08:22 8.7 °F 7.0 °F 1015.8 in Calm   1.6 mph 89 % 0.0 in
08:32 8.8 °F 7.2 °F 1015.8 in Calm   3.2 mph 90 % 0.0 in
08:37 8.9 °F 7.3 °F 1016.1 in Calm   1.6 mph 90 % 0.0 in
08:42 9.1 °F 7.5 °F 1015.8 in Calm   1.6 mph 90 % 0.0 in
08:47 9.3 °F 7.6 °F 1016.1 in Calm   1.6 mph 89 % 0.0 in
08:52 9.4 °F 7.5 °F 1016.1 in Calm   1.6 mph 88 % 0.0 in
09:02 9.7 °F 7.8 °F 1015.8 in Calm   1.6 mph 88 % 0.0 in
09:12 9.9 °F 7.8 °F 1015.8 in Calm   1.6 mph 87 % 0.0 in
09:17 10.0 °F 8.3 °F 1016.1 in Calm   1.6 mph 89 % 0.0 in
09:22 10.3 °F 8.4 °F 1016.1 in Calm   1.6 mph 88 % 0.0 in
09:32 11.2 °F 8.9 °F 1015.8 in Calm     86 % 0.0 in
09:42 12.2 °F 9.0 °F 1015.8 in Calm     81 % 0.0 in
09:47 12.4 °F 8.9 °F 1015.8 in Calm   1.6 mph 79 % 0.0 in
09:52 12.8 °F 8.9 °F 1015.8 in Calm   1.6 mph 77 % 0.0 in
10:02 13.4 °F 9.3 °F 1015.8 in Calm   1.6 mph 76 % 0.0 in
10:07 13.5 °F 9.2 °F 1015.8 in East 3.2 mph 3.2 mph 75 % 0.0 in
10:12 13.4 °F 8.9 °F 1015.5 in Calm   1.6 mph 74 % 0.0 in
10:17 13.7 °F 9.1 °F 1015.5 in Calm   4.8 mph 74 % 0.0 in
10:22 14.0 °F 9.4 °F 1015.5 in Calm   4.8 mph 74 % 0.0 in
10:32 14.6 °F 9.4 °F 1015.5 in South 1.6 mph 3.2 mph 71 % 0.0 in
10:42 14.5 °F 9.7 °F 1015.5 in Calm   3.2 mph 73 % 0.0 in
10:52 14.9 °F 9.9 °F 1015.5 in Calm   4.8 mph 72 % 0.0 in
11:02 15.2 °F 10.0 °F 1015.5 in SSE 1.6 mph 3.2 mph 71 % 0.0 in
11:07 15.3 °F 10.1 °F 1015.5 in SE 1.6 mph 6.4 mph 71 % 0.0 in
11:12 15.6 °F 10.4 °F 1015.5 in Calm   6.4 mph 71 % 0.0 in
11:17 15.9 °F 10.6 °F 1015.1 in SE 1.6 mph 4.8 mph 71 % 0.0 in
11:22 16.2 °F 10.7 °F 1015.1 in SE 1.6 mph 4.8 mph 70 % 0.0 in
11:32 16.3 °F 10.8 °F 1015.1 in Calm   3.2 mph 70 % 0.0 in
11:42 16.8 °F 11.5 °F 1015.1 in Calm   4.8 mph 71 % 0.0 in
11:52 17.3 °F 11.3 °F 1015.1 in South 3.2 mph 4.8 mph 68 % 0.0 in
11:57 17.7 °F 11.7 °F 1015.1 in SSE 1.6 mph 6.4 mph 68 % 0.0 in
12:02 18.1 °F 11.9 °F 1015.1 in Calm   6.4 mph 67 % 0.0 in
12:07 18.2 °F 11.5 °F 1014.8 in SSW 6.4 mph 8.0 mph 65 % 0.0 in
12:12 18.2 °F 12.0 °F 1014.8 in SSW 3.2 mph 8.0 mph 67 % 0.0 in
12:17 18.5 °F 12.0 °F 1014.8 in SSW 1.6 mph 9.7 mph 66 % 0.0 in
12:22 18.7 °F 11.8 °F 1014.8 in Calm   9.7 mph 64 % 0.0 in
12:32 19.1 °F 11.9 °F 1014.8 in SE 3.2 mph 9.7 mph 63 % 0.0 in
12:42 19.4 °F 12.2 °F 1014.8 in Calm   8.0 mph 63 % 0.0 in
12:47 19.7 °F 12.2 °F 1014.8 in Calm   11.3 mph 62 % 0.0 in
12:52 19.7 °F 12.2 °F 1014.4 in NNE 4.8 mph 11.3 mph 62 % 0.0 in
12:57 19.7 °F 12.2 °F 1014.4 in Calm   8.0 mph 62 % 0.0 in
13:02 19.8 °F 12.6 °F 1014.4 in Calm   8.0 mph 63 % 0.0 in
13:07 20.2 °F 12.4 °F 1014.4 in Calm   6.4 mph 61 % 0.0 in
13:12 20.3 °F 12.3 °F 1014.4 in Calm   6.4 mph 60 % 0.0 in
13:17 20.4 °F 12.4 °F 1014.4 in Calm   6.4 mph 60 % 0.0 in
13:22 20.6 °F 12.3 °F 1014.4 in Calm   6.4 mph 59 % 0.0 in
13:32 20.7 °F 12.4 °F 1014.1 in ENE 1.6 mph 6.4 mph 59 % 0.0 in
13:42 20.7 °F 12.1 °F 1014.1 in ESE 4.8 mph 4.8 mph 58 % 0.0 in
13:47 20.4 °F 12.1 °F 1014.1 in ENE 6.4 mph 6.4 mph 59 % 0.0 in
13:57 20.7 °F 12.7 °F 1013.8 in Calm   8.0 mph 60 % 0.0 in
14:02 20.9 °F 12.3 °F 1013.8 in ESE 3.2 mph 8.0 mph 58 % 0.0 in
14:12 21.1 °F 12.2 °F 1013.8 in Calm   6.4 mph 57 % 0.0 in
14:17 21.7 °F 12.3 °F 1013.4 in Calm   6.4 mph 55 % 0.0 in
14:22 21.7 °F 12.5 °F 1013.4 in Calm   6.4 mph 56 % 0.0 in
14:32 22.1 °F 12.6 °F 1013.4 in NE 1.6 mph 8.0 mph 55 % 0.0 in
14:42 22.3 °F 12.8 °F 1013.1 in ESE 4.8 mph 8.0 mph 55 % 0.0 in
14:52 22.3 °F 12.5 °F 1013.1 in SE 3.2 mph 11.3 mph 54 % 0.0 in
15:02 22.4 °F 12.6 °F 1013.1 in ESE 1.6 mph 11.3 mph 54 % 0.0 in
15:07 22.3 °F 12.0 °F 1013.1 in Calm   9.7 mph 52 % 0.0 in
15:12 22.4 °F 11.8 °F 1013.1 in Calm   9.7 mph 51 % 0.0 in
15:17 22.5 °F 12.2 °F 1013.1 in SE 1.6 mph 6.4 mph 52 % 0.0 in
15:22 22.3 °F 12.0 °F 1013.1 in Calm   6.4 mph 52 % 0.0 in
15:32 22.2 °F 11.3 °F 1013.1 in ESE 6.4 mph 6.4 mph 50 % 0.0 in
15:42 22.2 °F 12.4 °F 1012.8 in ENE 6.4 mph 6.4 mph 54 % 0.0 in
15:52 21.8 °F 12.6 °F 1012.8 in ESE 8.0 mph 12.9 mph 56 % 0.0 in
16:02 21.6 °F 12.4 °F 1012.8 in SSE 4.8 mph 12.9 mph 56 % 0.0 in
16:12 21.7 °F 12.8 °F 1012.8 in ESE 3.2 mph 11.3 mph 57 % 0.0 in
16:17 21.6 °F 12.7 °F 1012.4 in East 4.8 mph 14.5 mph 57 % 0.0 in
16:22 21.5 °F 12.9 °F 1012.4 in SE 8.0 mph 14.5 mph 58 % 0.0 in
16:32 21.4 °F 12.8 °F 1012.4 in ENE 3.2 mph 14.5 mph 58 % 0.0 in
16:42 21.6 °F 13.0 °F 1012.4 in ESE 4.8 mph 9.7 mph 58 % 0.0 in
16:47 21.7 °F 12.8 °F 1012.1 in ENE 8.0 mph 11.3 mph 57 % 0.0 in
16:52 21.7 °F 13.1 °F 1012.1 in East 3.2 mph 11.3 mph 58 % 0.0 in
17:02 21.9 °F 13.3 °F 1012.1 in East 4.8 mph 11.3 mph 58 % 0.0 in
17:12 21.9 °F 12.7 °F 1012.1 in East 3.2 mph 9.7 mph 56 % 0.0 in
17:17 21.8 °F 12.6 °F 1012.1 in ENE 4.8 mph 8.0 mph 56 % 0.0 in
17:22 21.9 °F 12.7 °F 1012.1 in ENE 1.6 mph 8.0 mph 56 % 0.0 in
17:32 21.7 °F 12.8 °F 1012.1 in East 1.6 mph 9.7 mph 57 % 0.0 in
17:42 21.4 °F 12.8 °F 1012.1 in ESE 1.6 mph 9.7 mph 58 % 0.0 in
17:52 21.2 °F 12.9 °F 1012.1 in East 1.6 mph 6.4 mph 59 % 0.0 in
17:57 21.2 °F 12.9 °F 1012.1 in East 1.6 mph 6.4 mph 59 % 0.0 in
18:02 21.0 °F 12.7 °F 1012.1 in ENE 4.8 mph 6.4 mph 59 % 0.0 in
18:12 20.8 °F 12.7 °F 1011.7 in Calm   6.4 mph 60 % 0.0 in
18:17 20.7 °F 12.9 °F 1011.7 in East 4.8 mph 8.0 mph 61 % 0.0 in
18:22 20.7 °F 12.9 °F 1012.1 in Calm   8.0 mph 61 % 0.0 in
18:32 20.6 °F 12.8 °F 1011.7 in East 1.6 mph 9.7 mph 61 % 0.0 in
18:42 20.3 °F 12.8 °F 1011.7 in East 6.4 mph 8.0 mph 62 % 0.0 in
18:52 20.1 °F 12.8 °F 1011.7 in East 1.6 mph 6.4 mph 63 % 0.0 in
18:57 19.9 °F 12.9 °F 1011.7 in ENE 3.2 mph 8.0 mph 64 % 0.0 in
19:02 19.7 °F 12.9 °F 1011.7 in ENE 1.6 mph 8.0 mph 65 % 0.0 in
19:12 19.3 °F 12.8 °F 1011.4 in ENE 1.6 mph 8.0 mph 66 % 0.0 in
19:17 19.1 °F 12.8 °F 1011.7 in NE 3.2 mph 8.0 mph 67 % 0.0 in
19:22 18.9 °F 12.9 °F 1011.4 in ENE 3.2 mph 8.0 mph 68 % 0.0 in
19:32 18.6 °F 12.8 °F 1011.7 in NE 4.8 mph 6.4 mph 69 % 0.0 in
19:37 18.4 °F 12.6 °F 1011.7 in NE 4.8 mph 6.4 mph 69 % 0.0 in
19:42 18.3 °F 12.7 °F 1011.7 in ENE 4.8 mph 8.0 mph 70 % 0.0 in
19:47 18.1 °F 12.5 °F 1011.7 in ENE 4.8 mph 8.0 mph 70 % 0.0 in
19:52 17.9 °F 12.6 °F 1011.7 in ENE 1.6 mph 8.0 mph 71 % 0.0 in
20:02 17.7 °F 12.4 °F 1011.7 in NE 6.4 mph 8.0 mph 71 % 0.0 in
20:12 17.8 °F 12.5 °F 1011.4 in ENE 4.8 mph 8.0 mph 71 % 0.0 in
20:17 17.7 °F 12.4 °F 1011.4 in NE 4.8 mph 8.0 mph 71 % 0.0 in
20:22 17.4 °F 12.3 °F 1011.4 in NE 3.2 mph 8.0 mph 72 % 0.0 in
20:32 17.3 °F 12.4 °F 1011.7 in ENE 3.2 mph 8.0 mph 73 % 0.0 in
20:37 17.2 °F 12.3 °F 1011.7 in ENE 3.2 mph 8.0 mph 73 % 0.0 in
20:42 17.1 °F 12.4 °F 1011.7 in ENE 6.4 mph 8.0 mph 74 % 0.0 in
20:47 17.1 °F 12.4 °F 1011.7 in Calm   8.0 mph 74 % 0.0 in
20:52 17.1 °F 12.4 °F 1011.7 in ENE 6.4 mph 9.7 mph 74 % 0.0 in
20:57 16.9 °F 12.2 °F 1011.7 in ENE 6.4 mph 9.7 mph 74 % 0.0 in
21:07 17.0 °F 12.3 °F 1011.7 in ENE 9.7 mph 11.3 mph 74 % 0.0 in
21:12 17.1 °F 12.4 °F 1011.7 in ENE 8.0 mph 11.3 mph 74 % 0.0 in
21:22 16.9 °F 12.4 °F 1012.1 in ESE 1.6 mph 11.3 mph 75 % 0.0 in
21:27 16.9 °F 12.4 °F 1011.7 in East 4.8 mph 11.3 mph 75 % 0.0 in
21:32 16.8 °F 12.3 °F 1012.1 in East 1.6 mph 8.0 mph 75 % 0.0 in
21:37 16.7 °F 12.2 °F 1012.1 in Calm   6.4 mph 75 % 0.0 in
21:42 16.6 °F 12.4 °F 1012.1 in Calm   6.4 mph 76 % 0.0 in
21:47 16.3 °F 12.1 °F 1012.1 in Calm   4.8 mph 76 % 0.0 in
21:57 15.6 °F 12.0 °F 1012.1 in Calm   1.6 mph 79 % 0.0 in
22:02 15.7 °F 12.1 °F 1012.4 in Calm   1.6 mph 79 % 0.0 in
22:12 16.1 °F 12.3 °F 1012.1 in NE 1.6 mph 3.2 mph 78 % 0.0 in
22:17 16.1 °F 12.3 °F 1012.1 in Calm   3.2 mph 78 % 0.0 in
22:22 16.1 °F 12.3 °F 1012.1 in Calm   3.2 mph 78 % 0.0 in
22:32 15.8 °F 12.2 °F 1012.1 in East 1.6 mph 3.2 mph 79 % 0.0 in
22:37 15.8 °F 12.2 °F 1012.1 in Calm   4.8 mph 79 % 0.0 in
22:44 15.6 °F 12.0 °F 1012.1 in Calm   4.8 mph 79 % 0.0 in
22:56 15.3 °F 12.1 °F 1012.4 in Calm   1.6 mph 81 % 0.0 in
23:02 14.7 °F 11.7 °F 1012.1 in Calm   1.6 mph 82 % 0.0 in
23:12 14.7 °F 11.7 °F 1012.1 in Calm   1.6 mph 82 % 0.0 in
23:17 14.8 °F 11.9 °F 1012.1 in Calm   1.6 mph 83 % 0.0 in
23:22 15.3 °F 12.2 °F 1012.1 in Calm   3.2 mph 82 % 0.0 in
23:27 15.3 °F 12.1 °F 1012.1 in Calm   3.2 mph 81 % 0.0 in
23:32 15.1 °F 11.9 °F 1012.1 in Calm   3.2 mph 81 % 0.0 in
23:42 14.6 °F 11.7 °F 1012.1 in Calm   3.2 mph 83 % 0.0 in
23:47 14.5 °F 11.6 °F 1012.1 in Calm   3.2 mph 83 % 0.0 in
23:52 14.2 °F 11.4 °F 1012.1 in Calm   3.2 mph 83 % 0.0 in
23:57 14.2 °F 11.7 °F 1012.1 in Calm   1.6 mph 85 % 0.0 in
Meteo18
Compliments of Weather Underground - 4 mb

Script developed by  Jim McMurry - jmcmurry@mwt.net Adapted for the template by  Wim van der Kuil - Leuven-Template.eu

You find our weather info also at:

European Weather Network

Weather Underground

Equipment we use:

Weather-station
Davis Vue

Weather-program
Meteobridge

Weather-server
Raspberry PI 2 B+

Provider
1 and 1

Davis Vue

Meteobridge

Raspberry PI 2 B+

1 and 1